Archival Weather

Pocono Mountains Rgnl

Mount Pocono, Pennsylvania (KMPO)

Report from: Tuesday, May 21, 2024 7:53 PM EDT
Current time: Monday, July 22, 2024 7:32 AM EDT

Current weather – Weather history – Daily summaries
Weather forecast

Temperature22.8°C (73.0°F)
Dew point12.2°C (54.0°F)
Winds 7 kts (3.6 m/s, 8.1 mph) South-Southwest (200°)
Visibility10 mi. (16.1 km)
Clouds Sky clear
Altimeter30.00 in.Hg (1016 mB)
Relative humidity51 %
Density altitude1,062 ft. (324 m)
Sea-level pressure101.5 kPa (1015 mB, 29.96 in.Hg)
Max temp last 6 hours27.2°C (81.0°F)
Min temp last 6 hours22.8°C (73.0°F)
Remarks Fully automated report
Automated weather observing station with precipitation discriminator
Pressure rising, then falling
Flight conditions Visual Meteorological Conditions
Raw dataKMPO 212353Z AUTO 20007KT 10SM CLR 23/12 A3000 RMK AO2 SLP146 T02280122 10272 20228 50006
An error has occurred. This application may no longer respond until reloaded. Reload 🗙